Time;durP1;ratioP1;P1;durP2;ratioP2;P2;SDS_P1;SDS_P2;PMS_P1;PMS_P2;Temp;Humidity;BMP_temperature;BMP_pressure;BME280_temperature;BME280_humidity;BME280_pressure;Samples;Min_cycle;Max_cycle;Signal;HPM_P1;HPM_P2
2024/03/29 00:00:40;;;;;;;17.10;15.40;;;7.60;82.70;;;;;;5038944;28;20212;-88
2024/03/29 00:03:07;;;;;;;16.40;15.40;;;7.70;82.30;;;;;;5041610;28;20203;-87
2024/03/29 00:05:33;;;;;;;17.00;15.60;;;7.60;82.50;;;;;;5043624;28;20204;-88
2024/03/29 00:07:59;;;;;;;17.40;16.00;;;7.70;82.30;;;;;;5043365;28;20173;-87
2024/03/29 00:10:25;;;;;;;17.67;16.27;;;7.60;82.60;;;;;;5041360;28;20173;-88
2024/03/29 00:12:50;;;;;;;17.17;15.73;;;7.50;82.80;;;;;;5041537;28;20215;-87
2024/03/29 00:15:16;;;;;;;16.50;15.37;;;7.50;83.00;;;;;;5041844;28;20181;-87
2024/03/29 00:17:42;;;;;;;16.93;15.83;;;7.40;83.20;;;;;;5042810;28;20207;-87
2024/03/29 00:20:08;;;;;;;16.37;15.37;;;7.50;82.80;;;;;;5042318;28;20183;-88
2024/03/29 00:22:33;;;;;;;16.67;15.27;;;7.40;83.20;;;;;;5042740;28;20297;-88
2024/03/29 00:25:07;;;;;;;16.70;15.50;;;7.40;83.10;;;;;;5044077;28;20568;-87
2024/03/29 00:27:32;;;;;;;15.73;14.57;;;7.30;83.20;;;;;;5042442;28;20180;-88
2024/03/29 00:29:58;;;;;;;16.77;15.33;;;7.30;83.30;;;;;;5042001;28;20169;-88
2024/03/29 00:32:25;;;;;;;16.33;15.17;;;7.30;83.40;;;;;;5042987;28;20270;-89
2024/03/29 00:34:51;;;;;;;15.50;14.33;;;7.20;83.70;;;;;;5043313;28;20185;-88
2024/03/29 00:37:17;;;;;;;17.37;15.83;;;7.20;83.90;;;;;;5043086;28;20177;-88
2024/03/29 00:39:43;;;;;;;16.87;15.77;;;7.20;84.00;;;;;;5043339;28;20179;-88
2024/03/29 00:42:09;;;;;;;16.00;14.90;;;7.20;84.10;;;;;;5043457;28;20193;-88
2024/03/29 00:44:37;;;;;;;14.40;13.50;;;7.20;84.20;;;;;;5042192;28;20665;-88
2024/03/29 00:47:02;;;;;;;15.60;14.60;;;7.20;84.20;;;;;;5038021;28;20685;-86
2024/03/29 00:49:28;;;;;;;15.73;14.53;;;7.20;84.00;;;;;;5035300;28;20207;-86
2024/03/29 00:51:53;;;;;;;10.63;9.80;;;7.10;84.10;;;;;;5035293;28;20188;-85
2024/03/29 00:54:19;;;;;;;10.37;9.43;;;7.20;83.90;;;;;;5035244;28;20220;-86
2024/03/29 00:56:45;;;;;;;10.17;9.13;;;7.10;83.90;;;;;;5036191;28;20177;-86
2024/03/29 00:59:10;;;;;;;9.83;8.87;;;7.10;84.00;;;;;;5036407;28;20185;-85
2024/03/29 01:01:36;;;;;;;9.47;8.67;;;7.10;84.00;;;;;;5035050;28;20180;-86
2024/03/29 01:04:01;;;;;;;9.50;8.70;;;7.10;84.00;;;;;;5036369;28;20684;-85
2024/03/29 01:06:27;;;;;;;9.67;8.77;;;7.10;84.00;;;;;;5035013;28;20589;-85
2024/03/29 01:08:52;;;;;;;9.83;8.90;;;7.20;83.80;;;;;;5034903;28;20667;-85
2024/03/29 01:11:18;;;;;;;11.93;8.90;;;7.00;84.00;;;;;;5034999;28;20227;-85
2024/03/29 01:13:43;;;;;;;10.63;9.80;;;7.10;83.80;;;;;;5036495;28;20232;-85
2024/03/29 01:16:09;;;;;;;9.80;8.80;;;7.00;83.90;;;;;;5035056;28;20267;-85
2024/03/29 01:18:34;;;;;;;9.13;8.33;;;7.00;84.20;;;;;;5034964;28;20314;-85
2024/03/29 01:21:00;;;;;;;8.73;8.07;;;6.90;84.30;;;;;;5036161;28;20637;-85
2024/03/29 01:23:25;;;;;;;9.23;8.30;;;6.80;84.50;;;;;;5034618;28;20224;-86
2024/03/29 01:25:51;;;;;;;10.60;9.17;;;6.90;84.50;;;;;;5034833;28;20680;-85
2024/03/29 01:28:16;;;;;;;9.00;8.40;;;6.80;84.60;;;;;;5034753;28;20179;-85
2024/03/29 01:30:42;;;;;;;9.23;8.53;;;6.70;84.80;;;;;;5036024;28;20180;-85
2024/03/29 01:33:07;;;;;;;9.90;9.00;;;6.60;85.10;;;;;;5035845;28;20203;-85
2024/03/29 01:35:33;;;;;;;9.27;8.43;;;6.60;85.30;;;;;;5034597;28;20177;-86
2024/03/29 01:37:58;;;;;;;9.40;8.60;;;6.60;85.40;;;;;;5034533;28;20177;-85
2024/03/29 01:40:24;;;;;;;9.83;9.03;;;6.60;85.40;;;;;;5034409;28;20222;-86
2024/03/29 01:42:53;;;;;;;8.83;8.23;;;6.50;85.40;;;;;;5035530;28;20618;-85
2024/03/29 01:45:19;;;;;;;9.07;8.17;;;6.50;85.60;;;;;;5035627;28;20184;-85
2024/03/29 01:47:45;;;;;;;8.77;8.17;;;6.60;85.40;;;;;;5034502;28;20172;-85
2024/03/29 01:50:11;;;;;;;8.63;7.93;;;6.50;85.40;;;;;;5035650;28;20168;-85
2024/03/29 01:52:37;;;;;;;10.13;9.13;;;6.60;85.30;;;;;;5034114;28;20209;-85
2024/03/29 01:55:03;;;;;;;15.73;14.53;;;6.60;85.20;;;;;;5035753;28;20169;-85
2024/03/29 01:57:29;;;;;;;15.47;14.13;;;6.60;85.00;;;;;;5035618;28;20648;-85
2024/03/29 01:59:54;;;;;;;15.47;14.13;;;6.60;85.00;;;;;;5035350;28;20180;-85
2024/03/29 02:02:22;;;;;;;15.20;13.93;;;6.60;85.10;;;;;;5034074;28;20275;-85
2024/03/29 02:04:47;;;;;;;15.90;14.47;;;6.60;85.10;;;;;;5034178;28;20184;-85
2024/03/29 02:07:13;;;;;;;15.00;13.60;;;6.60;84.90;;;;;;5035504;28;20207;-85
2024/03/29 02:09:39;;;;;;;15.70;14.40;;;6.50;84.90;;;;;;5033874;28;20176;-85
2024/03/29 02:12:04;;;;;;;17.13;14.47;;;6.50;84.90;;;;;;5034006;28;20546;-84
2024/03/29 02:14:30;;;;;;;16.93;15.43;;;6.50;85.00;;;;;;5035379;28;20172;-85
2024/03/29 02:16:55;;;;;;;16.00;14.70;;;6.60;84.80;;;;;;5033865;28;20295;-85
2024/03/29 02:19:21;;;;;;;16.50;15.17;;;6.60;84.70;;;;;;5033795;28;20275;-85
2024/03/29 02:21:49;;;;;;;15.20;14.13;;;6.70;84.60;;;;;;5033697;28;20191;-85
2024/03/29 02:24:17;;;;;;;16.10;14.83;;;6.70;84.40;;;;;;5033116;28;20249;-84
2024/03/29 02:26:44;;;;;;;15.33;14.30;;;6.70;84.10;;;;;;5035300;28;20197;-85
2024/03/29 02:29:10;;;;;;;16.73;15.40;;;6.70;84.00;;;;;;5033803;28;20183;-85
2024/03/29 02:31:35;;;;;;;16.17;14.77;;;6.70;84.10;;;;;;5033908;28;20177;-84
2024/03/29 02:34:01;;;;;;;16.10;14.83;;;6.80;83.70;;;;;;5033558;28;20192;-85
2024/03/29 02:36:27;;;;;;;15.60;14.37;;;6.80;83.70;;;;;;5033908;28;20187;-85
2024/03/29 02:38:52;;;;;;;15.67;14.33;;;6.70;83.70;;;;;;5034987;28;20211;-85
2024/03/29 02:41:18;;;;;;;16.43;15.17;;;6.70;84.00;;;;;;5034811;28;20381;-86
2024/03/29 02:43:44;;;;;;;16.57;15.13;;;6.60;84.20;;;;;;5033414;28;20212;-85
2024/03/29 02:46:09;;;;;;;15.93;14.77;;;6.50;84.70;;;;;;5033129;28;20624;-85
2024/03/29 02:48:35;;;;;;;15.40;14.13;;;6.40;84.80;;;;;;5034607;28;20238;-85
2024/03/29 02:51:01;;;;;;;14.90;13.80;;;6.40;85.10;;;;;;5034381;28;20165;-85
2024/03/29 02:53:26;;;;;;;15.13;13.83;;;6.40;85.20;;;;;;5033124;28;20188;-85
2024/03/29 02:55:52;;;;;;;14.77;13.57;;;6.30;85.20;;;;;;5034489;28;20168;-85
2024/03/29 02:58:17;;;;;;;17.60;14.53;;;6.30;85.20;;;;;;5032931;28;20222;-85
2024/03/29 03:00:43;;;;;;;15.37;13.93;;;6.30;85.30;;;;;;5034168;28;20176;-85
2024/03/29 03:03:08;;;;;;;14.47;13.40;;;6.30;85.30;;;;;;5032890;28;20202;-86
2024/03/29 03:05:34;;;;;;;15.63;14.10;;;6.30;85.30;;;;;;5032769;28;20300;-85
2024/03/29 03:10:56;;;;;;;15.67;14.37;;;6.30;85.20;;;;;;5034173;28;20163;-86
2024/03/29 03:13:22;;;;;;;15.40;14.00;;;6.30;85.10;;;;;;5034075;28;20188;-86
2024/03/29 03:15:47;;;;;;;14.37;13.37;;;6.30;85.20;;;;;;5032530;28;20177;-87
2024/03/29 03:18:13;;;;;;;15.63;14.23;;;6.30;85.20;;;;;;5034256;28;20301;-85
2024/03/29 03:20:38;;;;;;;14.73;13.40;;;6.20;85.20;;;;;;5034111;28;20177;-85
2024/03/29 03:23:04;;;;;;;15.63;14.37;;;6.30;85.20;;;;;;5033649;28;20224;-86
2024/03/29 03:25:29;;;;;;;15.73;14.53;;;6.20;85.30;;;;;;5033341;28;20274;-86
2024/03/29 03:27:55;;;;;;;15.30;14.17;;;6.20;85.40;;;;;;5034465;28;20168;-86
2024/03/29 03:30:22;;;;;;;9.00;8.03;;;6.30;85.40;;;;;;5032517;28;20184;-85
2024/03/29 03:32:47;;;;;;;9.30;8.40;;;6.20;85.30;;;;;;5034031;28;20211;-86
2024/03/29 03:35:13;;;;;;;8.90;8.10;;;6.30;85.30;;;;;;5031988;28;20176;-86
2024/03/29 03:37:39;;;;;;;8.77;8.00;;;6.20;85.40;;;;;;5032545;28;20547;-85
2024/03/29 03:40:06;;;;;;;10.27;7.90;;;6.20;85.50;;;;;;5032698;28;20215;-85
2024/03/29 03:42:32;;;;;;;9.03;8.17;;;6.20;85.40;;;;;;5033713;28;20193;-86
2024/03/29 03:44:57;;;;;;;9.03;8.13;;;6.20;85.60;;;;;;5032245;28;20180;-85
2024/03/29 03:47:23;;;;;;;8.50;7.83;;;6.10;85.70;;;;;;5034344;28;20197;-85
2024/03/29 03:49:48;;;;;;;11.30;8.27;;;6.10;85.80;;;;;;5033582;28;20235;-85
2024/03/29 03:52:14;;;;;;;8.73;8.13;;;6.10;85.70;;;;;;5033914;28;20187;-85
2024/03/29 03:54:39;;;;;;;8.80;8.00;;;6.10;85.80;;;;;;5032444;28;20172;-85
2024/03/29 03:57:05;;;;;;;11.00;8.40;;;6.10;85.70;;;;;;5032300;28;20550;-86
2024/03/29 03:59:30;;;;;;;9.43;7.83;;;6.10;85.60;;;;;;5033552;28;20184;-85
2024/03/29 04:01:56;;;;;;;9.13;8.20;;;6.10;85.70;;;;;;5033710;28;20198;-86
2024/03/29 04:04:22;;;;;;;8.30;7.80;;;6.10;85.70;;;;;;5031973;28;20204;-85
2024/03/29 04:06:48;;;;;;;9.57;8.20;;;6.10;85.70;;;;;;5033628;28;20692;-86
2024/03/29 04:09:16;;;;;;;8.57;7.73;;;6.00;85.80;;;;;;5032062;28;20180;-86
2024/03/29 04:11:42;;;;;;;8.83;8.00;;;6.00;85.90;;;;;;5033291;28;20176;-85
2024/03/29 04:14:08;;;;;;;8.57;7.97;;;6.00;85.90;;;;;;5033421;28;20188;-85
2024/03/29 04:16:33;;;;;;;8.60;7.80;;;6.00;85.90;;;;;;5033611;28;20181;-85
2024/03/29 04:18:59;;;;;;;9.47;8.73;;;6.00;85.80;;;;;;5031990;28;20176;-86
2024/03/29 04:21:24;;;;;;;10.80;8.40;;;6.00;85.90;;;;;;5031785;28;20327;-86
2024/03/29 04:23:50;;;;;;;8.60;7.80;;;6.10;85.80;;;;;;5031687;28;20303;-85
2024/03/29 04:26:15;;;;;;;10.30;8.80;;;6.00;85.70;;;;;;5033245;28;20209;-85
2024/03/29 04:28:41;;;;;;;8.57;7.87;;;6.10;85.70;;;;;;5031881;28;20177;-85
2024/03/29 04:31:06;;;;;;;9.50;8.80;;;6.10;85.70;;;;;;5032078;28;20173;-85
2024/03/29 04:33:32;;;;;;;16.87;15.60;;;6.00;85.60;;;;;;5031740;28;20266;-86
2024/03/29 04:36:00;;;;;;;17.23;15.73;;;6.00;85.50;;;;;;5033052;28;20714;-85
2024/03/29 04:38:27;;;;;;;15.50;14.43;;;6.00;85.60;;;;;;5031871;28;20213;-85
2024/03/29 04:40:54;;;;;;;17.53;16.23;;;6.00;85.50;;;;;;5033168;28;20185;-86
2024/03/29 04:43:25;;;;;;;17.03;15.40;;;6.10;85.50;;;;;;5032912;28;20324;-86
2024/03/29 04:46:01;;;;;;;15.93;14.77;;;6.10;85.40;;;;;;5031777;28;20231;-86
2024/03/29 04:48:26;;;;;;;14.73;13.63;;;6.10;85.40;;;;;;5036235;28;20235;-86
2024/03/29 04:50:52;;;;;;;16.27;14.73;;;6.20;85.30;;;;;;5036674;28;20260;-85
2024/03/29 04:53:17;;;;;;;16.03;14.43;;;6.10;85.40;;;;;;5036644;28;20207;-85
2024/03/29 04:55:45;;;;;;;15.20;13.97;;;6.10;85.40;;;;;;5036558;28;20187;-85
2024/03/29 04:58:10;;;;;;;15.30;13.90;;;6.10;85.40;;;;;;5036566;28;20172;-86
2024/03/29 05:00:36;;;;;;;14.67;13.63;;;6.20;85.40;;;;;;5035096;28;20176;-86
2024/03/29 05:03:01;;;;;;;14.97;13.83;;;6.20;85.30;;;;;;5035165;28;20219;-86
2024/03/29 05:05:27;;;;;;;14.07;13.07;;;6.20;85.20;;;;;;5035235;28;20188;-85
2024/03/29 05:07:52;;;;;;;13.97;12.83;;;6.30;85.10;;;;;;5036789;28;20659;-85
2024/03/29 05:10:18;;;;;;;14.20;13.10;;;6.30;85.00;;;;;;5036284;28;20706;-85
2024/03/29 05:12:43;;;;;;;14.53;13.57;;;6.30;84.90;;;;;;5034872;28;20195;-85
2024/03/29 05:15:09;;;;;;;13.73;12.83;;;6.30;84.80;;;;;;5036243;28;20255;-86
2024/03/29 05:17:36;;;;;;;15.77;14.37;;;6.30;84.70;;;;;;5036131;28;20173;-85
2024/03/29 05:20:02;;;;;;;14.97;13.87;;;6.30;84.70;;;;;;5034895;28;20235;-86
2024/03/29 05:22:27;;;;;;;13.70;12.77;;;6.30;84.70;;;;;;5036007;28;20222;-86
2024/03/29 05:24:54;;;;;;;14.80;13.87;;;6.30;84.80;;;;;;5034713;28;20585;-85
2024/03/29 05:27:20;;;;;;;15.07;13.93;;;6.30;84.60;;;;;;5036567;28;20275;-86
2024/03/29 05:29:45;;;;;;;15.10;14.00;;;6.30;84.70;;;;;;5035487;28;20279;-85
2024/03/29 05:32:11;;;;;;;16.37;14.73;;;6.30;84.80;;;;;;5034774;28;20268;-85
2024/03/29 05:34:36;;;;;;;16.03;14.37;;;6.30;84.70;;;;;;5036449;28;20165;-85
2024/03/29 05:37:02;;;;;;;15.17;14.03;;;6.30;84.90;;;;;;5035889;28;20594;-86
2024/03/29 05:39:27;;;;;;;15.47;14.30;;;6.30;84.90;;;;;;5035734;28;20176;-85
2024/03/29 05:41:53;;;;;;;15.83;14.13;;;6.40;84.80;;;;;;5036100;28;20215;-86
2024/03/29 05:44:19;;;;;;;15.57;14.30;;;6.40;84.60;;;;;;5034535;28;20580;-86
2024/03/29 05:46:45;;;;;;;14.67;13.47;;;6.40;84.60;;;;;;5034352;28;20207;-86
2024/03/29 05:49:10;;;;;;;15.33;14.27;;;6.40;84.60;;;;;;5034449;28;20184;-85
2024/03/29 05:51:36;;;;;;;16.10;14.80;;;6.50;84.30;;;;;;5035826;28;20165;-86
2024/03/29 05:54:03;;;;;;;13.43;12.50;;;6.50;84.20;;;;;;5034171;28;20193;-85
2024/03/29 05:56:29;;;;;;;12.40;11.60;;;6.50;84.20;;;;;;5034285;28;20177;-85
2024/03/29 05:58:55;;;;;;;13.40;12.50;;;6.60;84.40;;;;;;5034505;28;20184;-85
2024/03/29 06:01:21;;;;;;;13.47;12.43;;;6.60;84.20;;;;;;5034019;28;20196;-86
2024/03/29 06:03:47;;;;;;;9.03;8.47;;;6.60;84.20;;;;;;5035410;28;20189;-85
2024/03/29 06:06:17;;;;;;;9.20;8.60;;;6.70;83.90;;;;;;5034019;28;20700;-86
2024/03/29 06:08:43;;;;;;;9.87;8.80;;;6.70;83.60;;;;;;5034226;28;20168;-85
2024/03/29 06:11:08;;;;;;;10.07;9.23;;;6.80;83.80;;;;;;5034032;28;20242;-85
2024/03/29 06:19:02;;;;;;;9.37;8.47;;;6.80;83.40;;;;;;5035501;28;20164;-85
2024/03/29 06:21:27;;;;;;;12.97;9.20;;;6.80;83.30;;;;;;5033722;28;20177;-85
2024/03/29 06:23:53;;;;;;;9.80;8.90;;;6.90;83.20;;;;;;5033430;28;20223;-85
2024/03/29 06:26:19;;;;;;;9.57;8.80;;;6.90;83.00;;;;;;5033745;28;20204;-86
2024/03/29 06:28:44;;;;;;;9.70;8.83;;;7.00;83.00;;;;;;5035659;28;20177;-86
2024/03/29 06:31:10;;;;;;;9.07;8.47;;;7.00;83.00;;;;;;5036842;28;20177;-86
2024/03/29 06:33:36;;;;;;;9.87;9.17;;;7.00;83.00;;;;;;5036443;28;20211;-85
2024/03/29 06:36:01;;;;;;;10.00;9.10;;;7.10;82.50;;;;;;5035974;28;20216;-86
2024/03/29 06:38:27;;;;;;;9.40;8.60;;;7.10;82.60;;;;;;5036829;28;20183;-84
2024/03/29 06:40:52;;;;;;;9.83;9.00;;;7.20;82.40;;;;;;5036807;28;20181;-87
2024/03/29 06:43:18;;;;;;;10.10;9.13;;;7.10;82.50;;;;;;5036170;28;20618;-86
2024/03/29 06:45:43;;;;;;;10.67;9.70;;;7.20;82.20;;;;;;5035401;28;20287;-86
2024/03/29 06:48:09;;;;;;;10.23;9.27;;;7.20;82.20;;;;;;5035184;28;20180;-86
2024/03/29 06:50:34;;;;;;;10.90;9.90;;;7.20;82.30;;;;;;5035996;28;20262;-87
2024/03/29 06:53:00;;;;;;;9.53;8.73;;;7.30;82.40;;;;;;5035635;28;20193;-86
2024/03/29 06:55:26;;;;;;;10.63;9.67;;;7.30;82.40;;;;;;5036205;28;20180;-87
2024/03/29 06:57:51;;;;;;;12.37;9.77;;;7.20;82.70;;;;;;5034652;28;20177;-86
2024/03/29 07:00:17;;;;;;;9.37;8.57;;;7.30;82.60;;;;;;5036104;28;20180;-86
2024/03/29 07:02:43;;;;;;;10.60;9.67;;;7.30;82.40;;;;;;5036078;28;20203;-85
2024/03/29 07:05:11;;;;;;;10.10;9.33;;;7.30;82.20;;;;;;5034860;28;20207;-88
2024/03/29 07:07:37;;;;;;;9.53;8.63;;;7.40;82.10;;;;;;5033954;28;20227;-86
2024/03/29 07:10:03;;;;;;;10.57;9.13;;;7.50;82.10;;;;;;5036394;28;20641;-87
2024/03/29 07:12:28;;;;;;;11.93;9.27;;;7.50;82.00;;;;;;5039891;28;20254;-86
2024/03/29 07:14:54;;;;;;;10.30;9.60;;;7.60;81.70;;;;;;5039818;28;20177;-86
2024/03/29 07:17:19;;;;;;;11.33;10.43;;;7.70;81.40;;;;;;5035436;28;20177;-90
2024/03/29 07:19:45;;;;;;;9.90;9.27;;;7.70;81.20;;;;;;5037993;28;20191;-86
2024/03/29 07:22:10;;;;;;;15.47;14.00;;;7.80;81.30;;;;;;5038490;28;20181;-87
2024/03/29 07:24:36;;;;;;;16.60;14.93;;;7.80;81.30;;;;;;5035610;28;20196;-86
2024/03/29 07:27:01;;;;;;;15.33;14.23;;;8.00;80.60;;;;;;5036117;28;20209;-86
2024/03/29 07:29:27;;;;;;;15.23;14.23;;;8.10;80.00;;;;;;5034650;28;20173;-86
2024/03/29 07:31:52;;;;;;;16.03;14.87;;;8.20;80.20;;;;;;5034958;28;20179;-86
2024/03/29 07:34:19;;;;;;;14.83;13.73;;;8.20;80.60;;;;;;5034828;28;20200;-86
2024/03/29 07:36:45;;;;;;;16.97;15.77;;;8.30;80.30;;;;;;5036656;28;20181;-87
2024/03/29 07:39:10;;;;;;;15.87;14.60;;;8.30;80.20;;;;;;5035689;28;20192;-86
2024/03/29 07:41:38;;;;;;;15.27;14.30;;;8.40;80.00;;;;;;5035106;28;20189;-84
2024/03/29 07:44:03;;;;;;;16.53;15.40;;;8.50;79.80;;;;;;5035599;28;20274;-86
2024/03/29 07:46:34;;;;;;;15.57;14.40;;;8.50;79.90;;;;;;5036276;28;20236;-85
2024/03/29 07:49:00;;;;;;;15.77;14.50;;;8.50;79.50;;;;;;5035128;28;20181;-85
2024/03/29 07:51:26;;;;;;;16.23;15.03;;;8.60;79.50;;;;;;5035244;28;20262;-87
2024/03/29 07:53:52;;;;;;;16.13;15.00;;;8.70;78.80;;;;;;5034371;28;20197;-87
2024/03/29 07:56:18;;;;;;;17.33;16.23;;;8.70;78.40;;;;;;5034990;28;20644;-85
2024/03/29 07:58:44;;;;;;;17.20;15.90;;;8.80;77.80;;;;;;5034003;28;20194;-86
2024/03/29 08:01:09;;;;;;;15.33;14.23;;;8.80;78.00;;;;;;5035319;28;20637;-86
2024/03/29 08:03:36;;;;;;;16.87;15.13;;;8.80;78.20;;;;;;5034014;28;20255;-88
2024/03/29 08:06:06;;;;;;;17.73;16.50;;;8.90;78.50;;;;;;5034043;28;20208;-86
2024/03/29 08:08:32;;;;;;;17.23;16.07;;;8.90;78.20;;;;;;5035363;28;20161;-86
2024/03/29 08:10:58;;;;;;;16.93;15.70;;;8.90;78.20;;;;;;5034542;28;20172;-87
2024/03/29 08:13:26;;;;;;;16.80;15.60;;;8.90;78.00;;;;;;5034882;28;20301;-87
2024/03/29 08:16:00;;;;;;;16.67;15.57;;;8.90;78.30;;;;;;5033260;28;20181;-88
2024/03/29 08:18:26;;;;;;;16.67;15.67;;;8.90;78.60;;;;;;5034931;28;20219;-86
2024/03/29 08:20:52;;;;;;;17.20;16.13;;;8.90;78.50;;;;;;5035710;28;20252;-85
2024/03/29 08:23:17;;;;;;;16.03;15.00;;;9.00;78.40;;;;;;5038585;28;20294;-85
2024/03/29 08:25:44;;;;;;;14.17;13.13;;;9.10;79.00;;;;;;5039808;28;20290;-84
2024/03/29 08:28:10;;;;;;;13.10;12.20;;;9.10;79.00;;;;;;5040029;28;20598;-86
2024/03/29 08:30:36;;;;;;;15.57;14.57;;;9.10;79.60;;;;;;5040659;28;20192;-86
2024/03/29 08:33:02;;;;;;;16.97;15.77;;;9.00;79.80;;;;;;5040459;28;20686;-86
2024/03/29 08:35:35;;;;;;;16.97;15.87;;;9.10;79.50;;;;;;5040422;28;20691;-85
2024/03/29 08:38:01;;;;;;;15.63;14.63;;;9.10;79.90;;;;;;5038664;28;20204;-86
2024/03/29 08:40:34;;;;;;;15.40;14.13;;;9.10;79.90;;;;;;5038894;28;20644;-85
2024/03/29 08:42:59;;;;;;;15.83;14.73;;;9.10;79.50;;;;;;5039462;28;20200;-85
2024/03/29 08:45:25;;;;;;;15.60;14.40;;;9.10;80.10;;;;;;5038926;28;20177;-86
2024/03/29 08:47:50;;;;;;;14.40;13.37;;;9.10;80.60;;;;;;5039493;28;20176;-85
2024/03/29 08:50:16;;;;;;;16.17;14.87;;;9.00;80.80;;;;;;5038931;28;20169;-86
2024/03/29 08:52:41;;;;;;;14.20;13.13;;;9.10;80.70;;;;;;5040108;28;20204;-85
2024/03/29 08:55:07;;;;;;;13.30;12.43;;;9.00;81.60;;;;;;5037949;28;20179;-86
2024/03/29 08:57:33;;;;;;;14.77;13.77;;;9.00;82.10;;;;;;5038683;28;20684;-86
2024/03/29 08:59:59;;;;;;;15.33;14.23;;;9.00;81.70;;;;;;5039527;28;20176;-85
2024/03/29 09:02:25;;;;;;;14.13;13.13;;;9.10;81.20;;;;;;5039568;28;20204;-85
2024/03/29 09:04:50;;;;;;;15.47;14.30;;;9.10;81.30;;;;;;5040532;28;20183;-85
2024/03/29 09:07:16;;;;;;;15.77;14.67;;;9.10;81.30;;;;;;5039230;28;20232;-86
2024/03/29 09:09:41;;;;;;;11.13;10.33;;;9.10;81.20;;;;;;5038694;28;20188;-86
2024/03/29 09:12:10;;;;;;;11.87;10.80;;;9.20;81.40;;;;;;5039412;28;20176;-86
2024/03/29 09:14:35;;;;;;;10.50;9.80;;;9.20;81.10;;;;;;5039496;28;20219;-86
2024/03/29 09:17:04;;;;;;;11.57;10.73;;;9.30;81.00;;;;;;5039345;28;20664;-87
2024/03/29 09:19:31;;;;;;;11.00;10.20;;;9.30;80.70;;;;;;5037629;28;20219;-89
2024/03/29 09:21:56;;;;;;;11.50;10.70;;;9.40;80.80;;;;;;5037093;28;20193;-86
2024/03/29 09:24:22;;;;;;;11.97;10.97;;;9.40;81.00;;;;;;5037728;28;20215;-86
2024/03/29 09:26:51;;;;;;;11.97;10.57;;;9.50;80.60;;;;;;5038108;28;20687;-86
2024/03/29 09:29:17;;;;;;;10.77;10.07;;;9.60;80.80;;;;;;5038439;28;20184;-86
2024/03/29 09:31:43;;;;;;;11.93;10.83;;;9.60;80.60;;;;;;5039014;28;20183;-86
2024/03/29 09:34:09;;;;;;;11.30;10.30;;;9.70;80.80;;;;;;5037582;28;20259;-86
2024/03/29 09:36:34;;;;;;;11.83;10.60;;;9.70;80.80;;;;;;5038544;28;20660;-86
2024/03/29 09:39:00;;;;;;;11.87;11.07;;;9.60;80.70;;;;;;5037655;28;20529;-85
2024/03/29 09:41:28;;;;;;;12.07;11.03;;;9.50;80.60;;;;;;5037662;28;20180;-87
2024/03/29 09:43:57;;;;;;;10.77;9.97;;;9.50;80.40;;;;;;5039431;28;20216;-86
2024/03/29 09:46:23;;;;;;;11.30;10.50;;;9.50;80.90;;;;;;5038397;28;20204;-86
2024/03/29 09:48:50;;;;;;;11.40;10.27;;;9.50;80.70;;;;;;5037383;28;20200;-88
2024/03/29 09:51:16;;;;;;;11.20;10.60;;;9.50;80.70;;;;;;5038054;28;20172;-86
2024/03/29 09:53:43;;;;;;;10.97;10.17;;;9.50;80.40;;;;;;5039384;28;20251;-86
2024/03/29 09:56:09;;;;;;;11.70;10.80;;;9.60;80.90;;;;;;5038653;28;20624;-88
2024/03/29 09:58:36;;;;;;;11.53;10.80;;;9.50;80.60;;;;;;5036782;28;20322;-87
2024/03/29 10:01:06;;;;;;;10.50;9.70;;;9.50;81.00;;;;;;5036069;28;20188;-85
2024/03/29 10:03:36;;;;;;;10.00;9.40;;;9.50;81.60;;;;;;5037101;28;20193;-86
2024/03/29 10:06:02;;;;;;;10.13;9.43;;;9.50;81.40;;;;;;5037190;28;20185;-88
2024/03/29 10:08:30;;;;;;;9.70;9.00;;;9.50;81.90;;;;;;5035354;28;20656;-85
2024/03/29 10:10:59;;;;;;;10.30;9.40;;;9.50;82.00;;;;;;5036664;28;20267;-87
2024/03/29 10:13:25;;;;;;;10.10;9.40;;;9.50;81.80;;;;;;5036707;28;20207;-87
2024/03/29 10:15:53;;;;;;;10.10;9.40;;;9.50;82.00;;;;;;5037168;28;20180;-87
2024/03/29 10:18:20;;;;;;;10.43;9.67;;;9.50;82.10;;;;;;5038946;28;20172;-88
2024/03/29 10:20:46;;;;;;;10.00;9.20;;;9.50;82.10;;;;;;5037000;28;20181;-87
2024/03/29 10:23:11;;;;;;;9.60;8.90;;;9.40;82.40;;;;;;5035878;28;20243;-87
2024/03/29 10:25:37;;;;;;;10.00;9.13;;;9.50;82.80;;;;;;5036246;28;20176;-87
2024/03/29 10:28:03;;;;;;;9.40;8.70;;;9.50;82.50;;;;;;5038450;28;20169;-87
2024/03/29 10:30:29;;;;;;;9.33;8.50;;;9.80;82.60;;;;;;5037153;28;20179;-87
2024/03/29 10:32:58;;;;;;;9.87;8.97;;;9.90;82.10;;;;;;5038042;28;20193;-87
2024/03/29 10:35:27;;;;;;;8.90;8.40;;;9.90;82.00;;;;;;5036992;28;20172;-86
2024/03/29 10:37:55;;;;;;;9.27;8.67;;;9.80;82.10;;;;;;5037538;28;20264;-87
2024/03/29 10:40:24;;;;;;;9.90;9.20;;;9.80;82.10;;;;;;5036954;28;20184;-88
2024/03/29 10:42:51;;;;;;;9.83;9.13;;;9.90;82.10;;;;;;5035675;28;20207;-87
2024/03/29 10:45:17;;;;;;;10.03;9.30;;;9.90;82.20;;;;;;5036743;28;20176;-87
2024/03/29 10:47:44;;;;;;;9.20;8.60;;;9.90;82.00;;;;;;5035132;28;20227;-86
2024/03/29 10:50:12;;;;;;;9.63;9.03;;;9.90;82.50;;;;;;5036545;28;20173;-89
2024/03/29 10:52:39;;;;;;;9.73;9.13;;;10.00;82.60;;;;;;5038237;28;20193;-87
2024/03/29 10:55:08;;;;;;;9.60;8.80;;;10.00;82.70;;;;;;5038033;28;20180;-87
2024/03/29 10:57:36;;;;;;;10.37;9.57;;;10.10;82.50;;;;;;5036188;28;20184;-87
2024/03/29 11:00:04;;;;;;;9.50;8.83;;;10.00;81.90;;;;;;5035089;28;20620;-89
2024/03/29 11:02:45;;;;;;;9.57;8.60;;;10.00;82.20;;;;;;5035779;28;20205;-87
2024/03/29 11:05:13;;;;;;;9.57;8.77;;;10.10;82.50;;;;;;5034946;28;20227;-87
2024/03/29 11:07:41;;;;;;;10.37;9.40;;;10.20;82.40;;;;;;5035988;28;20201;-86
2024/03/29 11:10:13;;;;;;;10.57;9.07;;;10.10;82.10;;;;;;5035238;28;20183;-87
2024/03/29 11:13:03;;;;;;;8.87;8.27;;;10.10;82.30;;;;;;5037100;28;20232;-86
2024/03/29 11:15:31;;;;;;;9.67;8.87;;;10.10;82.40;;;;;;5036876;28;20180;-87
2024/03/29 11:17:57;;;;;;;8.60;8.00;;;10.00;81.90;;;;;;5036090;28;20185;-87
2024/03/29 11:20:34;;;;;;;8.80;8.10;;;10.00;82.40;;;;;;5036411;28;20179;-86
2024/03/29 11:23:09;;;;;;;8.83;7.93;;;10.10;82.80;;;;;;5034790;28;20215;-87
2024/03/29 11:25:45;;;;;;;10.17;9.10;;;10.20;82.60;;;;;;5034641;28;20226;-86
2024/03/29 11:28:21;;;;;;;8.90;8.30;;;10.20;81.40;;;;;;5034883;28;20182;-88
2024/03/29 11:30:47;;;;;;;8.80;8.10;;;10.10;81.30;;;;;;5034489;28;20173;-88
2024/03/29 11:33:28;;;;;;;7.80;7.20;;;10.30;82.40;;;;;;5035575;28;20239;-88
2024/03/29 11:35:54;;;;;;;8.77;7.97;;;10.40;83.00;;;;;;5038338;28;20294;-88
2024/03/29 11:38:20;;;;;;;9.07;8.40;;;10.30;82.20;;;;;;5035985;28;20196;-88
2024/03/29 11:41:05;;;;;;;9.17;8.53;;;10.30;82.00;;;;;;5033815;28;20177;-88
2024/03/29 11:43:35;;;;;;;9.67;8.97;;;10.30;82.10;;;;;;5035121;28;20203;-87
2024/03/29 11:46:03;;;;;;;9.53;8.80;;;10.30;81.90;;;;;;5035963;28;20676;-89
2024/03/29 11:48:31;;;;;;;9.13;8.43;;;10.30;82.50;;;;;;5035058;28;20176;-87
2024/03/29 11:50:57;;;;;;;9.60;8.63;;;10.30;82.50;;;;;;5033165;28;20177;-88
2024/03/29 11:53:23;;;;;;;9.77;9.00;;;10.50;82.80;;;;;;5034046;28;20274;-88
2024/03/29 11:55:53;;;;;;;9.77;9.00;;;10.60;82.60;;;;;;5033693;28;20198;-89
2024/03/29 11:58:20;;;;;;;10.23;9.50;;;10.60;82.50;;;;;;5038679;28;20173;-89
2024/03/29 12:00:47;;;;;;;12.53;11.73;;;10.80;82.60;;;;;;5039152;28;20204;-88
2024/03/29 12:03:13;;;;;;;13.37;12.37;;;10.90;82.40;;;;;;5037808;28;20201;-89
2024/03/29 12:05:39;;;;;;;13.80;12.73;;;10.90;81.90;;;;;;5037640;28;20180;-88
2024/03/29 12:08:05;;;;;;;14.10;12.93;;;11.00;81.40;;;;;;5037831;28;20177;-89
2024/03/29 12:10:31;;;;;;;13.87;12.77;;;11.20;81.40;;;;;;5037594;28;20194;-88
2024/03/29 12:13:00;;;;;;;14.77;13.77;;;11.40;80.70;;;;;;5037593;28;20276;-87
2024/03/29 12:15:27;;;;;;;15.50;13.93;;;11.40;80.10;;;;;;5038925;28;20641;-88
2024/03/29 12:17:57;;;;;;;16.50;15.17;;;11.70;81.40;;;;;;5039146;28;20267;-89
2024/03/29 12:20:22;;;;;;;15.53;14.13;;;11.60;79.50;;;;;;5037712;28;20254;-88
2024/03/29 12:22:48;;;;;;;16.50;15.40;;;11.70;80.50;;;;;;5037209;28;20224;-89
2024/03/29 12:25:14;;;;;;;15.20;13.83;;;11.50;80.00;;;;;;5037525;28;20177;-87
2024/03/29 12:27:41;;;;;;;14.97;13.77;;;11.50;80.60;;;;;;5036922;28;20236;-88
2024/03/29 12:30:07;;;;;;;15.93;14.73;;;11.70;80.80;;;;;;5038615;28;20184;-86
2024/03/29 12:32:34;;;;;;;15.33;14.23;;;11.70;80.70;;;;;;5037647;28;20196;-90
2024/03/29 12:35:14;;;;;;;10.30;9.60;;;11.60;81.10;;;;;;5038259;28;20248;-88
2024/03/29 12:37:50;;;;;;;10.87;10.17;;;11.60;81.10;;;;;;5037407;28;20593;-88
2024/03/29 12:40:22;;;;;;;10.03;9.33;;;11.50;79.60;;;;;;5038785;28;20522;-88
2024/03/29 12:42:51;;;;;;;10.70;9.80;;;11.70;80.30;;;;;;5038639;28;20196;-88
2024/03/29 12:45:21;;;;;;;11.47;10.77;;;12.00;80.10;;;;;;5036972;28;20208;-88
2024/03/29 12:47:48;;;;;;;10.90;10.13;;;11.80;78.60;;;;;;5037566;28;20226;-90